Aeroporto :
LOGIN :

Iscrizione | Disclaimer

   EN    FR    IT 

 










Sommario :    VFR   VFR Marginale   IFR   IFR Intensivo   IFR Molto Intensivo
Visibilità : 
Base nubi : 
>= 8 km
>= 3000ft
5 / 8 km
1000 / 3000 ft
1500m / 5 km
500 / 1000 ft
800 / 1500m
200 / 500 ft
< 800m
< 200 ft
Simboli :   Temporali  Nebbia  Neve Forte  Precipitazioni Forti  Vento > 20 kt
SIGMETs :   Varie  Temporali  Ghiacco  Turbolenza  Onda orograficha  Ceneri Vulcaniche






- Altitudine del aeroporto : 37 ft


EHVL - Vlieland Heliport

ULTIMO METAR :
  • 260425Z AUTO 31012KT 9999 FEW016 OVC030 10/07 Q1018 BLU

METARs OBSOLETI :
  • 260355Z AUTO 31012KT 9999 BKN028 OVC032 10/07 Q1018 BLU
  • 260347Z AUTO 31012KT 9999 FEW015 OVC029 10/07 Q1018 BLU
  • 260336Z AUTO 31013KT 9999 FEW013 SCT016 BKN025 10/08 Q1018 WHT
  • 260325Z AUTO 31013KT 9999 FEW010 SCT012 BKN020 10/08 Q1018 GRN
  • 260310Z AUTO 31010KT 9999 SCT010 BKN014 OVC016 10/08 Q1017 GRN
  • 260301Z AUTO 32012KT 9999 FEW001 OVC015 10/08 Q1017 WHT
  • 260246Z AUTO 31013KT 9999 FEW010 OVC015 10/08 Q1017 WHT
  • 260229Z AUTO 32014KT 9999 BKN015 OVC018 10/08 Q1017 WHT
  • 260225Z AUTO 31016KT 9999 SCT013 OVC016 10/08 Q1017 GRN
  • 260211Z AUTO 32015KT 9999 SCT014 OVC017 10/08 Q1017 GRN
  • 260155Z AUTO 32015KT 9999 SCT016 OVC020 10/09 Q1017 WHT
  • 260144Z AUTO 31014KT 9999 FEW010 BKN016 OVC019 10/09 Q1017 WHT

Previsioni scadute.



MetMap, La meteo Aeronautica in un colpo d'occhio ! - Copyright ORBIFLY Dicembre 2007 - Disclaimer

ORBIFLY MET'MAP TEAM :

Programmazione e sviluppo : Alexandra Zaïnal
Concezione : Baudouin d'Aumeries
Aiuto per la programmazione : Marc-Olivier Méhu
Supporto tecnico e logistico : Manuel Goepfert
Aiuto per la traduzione : Arnaldo La Scala

Contatto : metmap@orbifly.com




FONTI E CREDITI :

   NOAA